createdAt,value
2018-08-22T00:01:54.302Z,20.60
2018-08-22T00:04:23.081Z,20.60
2018-08-22T00:06:51.926Z,20.50
2018-08-22T00:09:20.739Z,20.50
2018-08-22T00:11:49.523Z,20.50
2018-08-22T00:14:18.328Z,20.50
2018-08-22T00:16:47.184Z,20.60
2018-08-22T00:19:15.978Z,20.50
2018-08-22T00:21:44.767Z,20.60
2018-08-22T00:24:13.568Z,20.70
2018-08-22T00:26:42.364Z,20.60
2018-08-22T00:29:11.248Z,20.70
2018-08-22T00:31:40.016Z,20.80
2018-08-22T00:34:08.875Z,20.80
2018-08-22T00:36:37.751Z,20.90
2018-08-22T00:39:07.170Z,20.90
2018-08-22T00:41:35.947Z,21.00
2018-08-22T00:44:04.782Z,21.00
2018-08-22T00:46:33.609Z,21.00
2018-08-22T00:49:02.569Z,21.00
2018-08-22T00:51:31.379Z,21.00
2018-08-22T00:54:00.287Z,21.00
2018-08-22T00:56:29.106Z,21.00
2018-08-22T00:58:57.913Z,21.00
2018-08-22T01:01:26.700Z,20.90
2018-08-22T01:03:55.556Z,20.90
2018-08-22T01:06:24.369Z,20.90
2018-08-22T01:08:53.191Z,20.90
2018-08-22T01:11:22.059Z,20.80
2018-08-22T01:13:50.919Z,20.80
2018-08-22T01:16:19.703Z,20.80
2018-08-22T01:18:49.139Z,20.80
2018-08-22T01:21:17.933Z,20.70
2018-08-22T01:23:46.776Z,20.70
2018-08-22T01:26:18.514Z,20.70
2018-08-22T01:28:47.328Z,20.70
2018-08-22T01:31:16.115Z,20.60
2018-08-22T01:33:44.951Z,20.50
2018-08-22T01:36:13.735Z,20.50
2018-08-22T01:38:42.536Z,20.40
2018-08-22T01:41:11.328Z,20.40
2018-08-22T01:43:40.105Z,20.40
2018-08-22T01:46:08.875Z,20.40
2018-08-22T01:48:37.677Z,20.30
2018-08-22T01:51:06.525Z,20.30
2018-08-22T01:53:35.280Z,20.30
2018-08-22T01:56:04.232Z,20.30
2018-08-22T01:58:33.095Z,20.20
2018-08-22T02:01:01.911Z,20.30
2018-08-22T02:03:30.677Z,20.20
2018-08-22T02:05:59.484Z,20.30
2018-08-22T02:08:28.273Z,20.20
2018-08-22T02:10:57.048Z,20.20
2018-08-22T02:13:25.824Z,20.20
2018-08-22T02:15:54.674Z,20.10
2018-08-22T02:18:23.536Z,20.10
2018-08-22T02:20:52.459Z,20.10
2018-08-22T02:23:21.263Z,20.10
2018-08-22T02:25:50.452Z,20.10
2018-08-22T02:28:19.246Z,20.10
2018-08-22T02:30:48.051Z,20.10
2018-08-22T02:33:16.868Z,20.10
2018-08-22T02:35:45.929Z,20.10
2018-08-22T02:38:18.985Z,20.20
2018-08-22T02:40:47.771Z,20.20
2018-08-22T02:43:16.588Z,20.20
2018-08-22T02:45:45.384Z,20.20
2018-08-22T02:48:14.435Z,20.10
2018-08-22T02:50:43.232Z,20.20
2018-08-22T02:53:12.116Z,20.10
2018-08-22T02:55:41.320Z,20.10
2018-08-22T02:58:10.399Z,20.10
2018-08-22T03:00:39.244Z,20.10
2018-08-22T03:03:08.224Z,20.00
2018-08-22T03:05:37.064Z,20.00
2018-08-22T03:08:06.079Z,20.00
2018-08-22T03:10:35.926Z,20.00
2018-08-22T03:13:05.040Z,19.90
2018-08-22T03:15:33.843Z,19.90
2018-08-22T03:18:02.659Z,19.80
2018-08-22T03:20:31.500Z,19.80
2018-08-22T03:23:00.347Z,19.80
2018-08-22T03:25:29.208Z,19.70
2018-08-22T03:27:58.007Z,19.70
2018-08-22T03:30:26.788Z,19.70
2018-08-22T03:32:55.572Z,19.70
2018-08-22T03:35:24.371Z,19.60
2018-08-22T03:37:53.144Z,19.60
2018-08-22T03:40:21.936Z,19.60
2018-08-22T03:42:50.711Z,19.50
2018-08-22T03:45:19.483Z,19.40
2018-08-22T03:47:48.251Z,19.40
2018-08-22T03:50:17.055Z,19.40
2018-08-22T03:52:45.832Z,19.30
2018-08-22T03:55:14.623Z,19.20
2018-08-22T03:57:43.411Z,19.30
2018-08-22T04:00:12.365Z,19.20
2018-08-22T04:02:41.472Z,19.20
2018-08-22T04:05:10.407Z,19.10
2018-08-22T04:07:39.180Z,19.20
2018-08-22T04:10:08.021Z,19.10
2018-08-22T04:12:36.795Z,19.20
2018-08-22T04:15:05.752Z,19.10
2018-08-22T04:17:36.913Z,19.00
2018-08-22T04:20:06.392Z,19.10
2018-08-22T04:22:36.539Z,19.10
2018-08-22T04:25:05.315Z,19.10
2018-08-22T04:27:34.115Z,19.10
2018-08-22T04:30:02.970Z,19.10
2018-08-22T04:32:31.747Z,18.90
2018-08-22T04:35:00.528Z,18.90
2018-08-22T04:37:29.386Z,18.90
2018-08-22T04:39:58.123Z,18.80
2018-08-22T04:42:26.905Z,18.80
2018-08-22T04:44:55.683Z,18.80
2018-08-22T04:47:24.464Z,18.70
2018-08-22T04:49:54.297Z,18.70
2018-08-22T04:52:23.113Z,18.70
2018-08-22T04:54:51.951Z,18.70
2018-08-22T04:57:20.748Z,18.70
2018-08-22T04:59:49.516Z,18.70
2018-08-22T05:02:18.319Z,18.70
2018-08-22T05:04:47.096Z,18.70
2018-08-22T05:07:16.516Z,18.70
2018-08-22T05:09:45.307Z,18.60
2018-08-22T05:12:14.101Z,18.60
2018-08-22T05:14:42.872Z,18.60
2018-08-22T05:17:11.663Z,18.60
2018-08-22T05:19:40.451Z,18.70
2018-08-22T05:22:09.357Z,18.60
2018-08-22T05:24:38.142Z,18.60
2018-08-22T05:27:06.951Z,18.70
2018-08-22T05:29:35.754Z,18.70
2018-08-22T05:32:04.946Z,18.80
2018-08-22T05:34:34.060Z,18.80
2018-08-22T05:37:02.945Z,18.80
2018-08-22T05:39:31.704Z,18.90
2018-08-22T05:42:00.496Z,18.90
2018-08-22T05:44:29.282Z,18.90
2018-08-22T05:46:58.074Z,19.00
2018-08-22T05:49:26.853Z,19.00
2018-08-22T05:51:55.796Z,19.00
2018-08-22T05:54:24.584Z,19.10
2018-08-22T05:56:53.930Z,19.20
2018-08-22T05:59:22.695Z,19.30
2018-08-22T06:01:51.592Z,19.30
2018-08-22T06:04:20.356Z,19.40
2018-08-22T06:06:49.143Z,19.50
2018-08-22T06:09:18.013Z,19.60
2018-08-22T06:11:46.717Z,19.60
2018-08-22T06:14:15.508Z,19.70
2018-08-22T06:16:44.496Z,19.70
2018-08-22T06:19:13.259Z,19.80
2018-08-22T06:21:42.076Z,19.80
2018-08-22T06:24:10.863Z,19.90
2018-08-22T06:26:39.711Z,20.00
2018-08-22T06:29:08.539Z,20.00
2018-08-22T06:31:37.317Z,20.10
2018-08-22T06:34:06.213Z,20.20
2018-08-22T06:36:35.055Z,20.30
2018-08-22T06:39:06.097Z,20.40
2018-08-22T06:41:34.887Z,20.40
2018-08-22T06:44:03.726Z,20.40
2018-08-22T06:46:32.503Z,20.50
2018-08-22T06:49:01.291Z,20.60
2018-08-22T06:51:30.359Z,20.70
2018-08-22T06:54:04.539Z,20.70
2018-08-22T06:56:38.055Z,20.80
2018-08-22T06:59:08.023Z,20.90
2018-08-22T07:01:45.283Z,21.00
2018-08-22T07:04:16.364Z,21.10
2018-08-22T07:06:48.670Z,21.20
2018-08-22T07:09:20.896Z,21.30
2018-08-22T07:11:57.051Z,21.40
2018-08-22T07:14:27.064Z,21.50
2018-08-22T07:16:59.573Z,21.50
2018-08-22T07:19:28.876Z,21.60
2018-08-22T07:22:06.025Z,21.80
2018-08-22T07:24:42.747Z,21.90
2018-08-22T07:27:16.252Z,21.90
2018-08-22T07:29:45.072Z,22.00
2018-08-22T07:32:18.635Z,22.10
2018-08-22T07:34:52.685Z,22.10
2018-08-22T07:37:21.523Z,22.20
2018-08-22T07:39:54.749Z,22.20
2018-08-22T07:45:02.849Z,22.30
2018-08-22T07:47:31.861Z,22.30
2018-08-22T07:50:00.656Z,22.30
2018-08-22T07:52:29.440Z,22.40
2018-08-22T07:54:58.217Z,22.60
2018-08-22T07:57:27.003Z,22.60
2018-08-22T07:59:56.265Z,22.60
2018-08-22T08:02:25.036Z,22.70
2018-08-22T08:04:53.840Z,22.70
2018-08-22T08:07:22.653Z,22.80
2018-08-22T08:09:51.396Z,22.80
2018-08-22T08:12:22.768Z,22.90
2018-08-22T08:14:56.997Z,23.00
2018-08-22T08:17:26.096Z,23.10
2018-08-22T08:19:54.888Z,23.10
2018-08-22T08:22:23.668Z,23.20
2018-08-22T08:24:52.455Z,23.20
2018-08-22T08:27:21.363Z,23.20
2018-08-22T08:29:50.751Z,23.40
2018-08-22T08:32:19.519Z,23.50
2018-08-22T08:34:48.294Z,23.60
2018-08-22T08:37:17.075Z,23.60
2018-08-22T08:39:45.887Z,23.70
2018-08-22T08:42:14.655Z,23.80
2018-08-22T08:44:43.420Z,24.00
2018-08-22T08:47:12.253Z,24.10
2018-08-22T08:49:41.194Z,24.20
2018-08-22T08:52:09.802Z,24.20
2018-08-22T08:54:38.775Z,24.30
2018-08-22T08:57:07.631Z,24.40
2018-08-22T08:59:36.380Z,24.60
2018-08-22T09:02:05.155Z,24.70
2018-08-22T09:04:33.938Z,24.80
2018-08-22T09:07:02.744Z,25.00
2018-08-22T09:09:31.524Z,25.10
2018-08-22T09:12:01.117Z,25.20
2018-08-22T09:14:30.301Z,25.50
2018-08-22T09:16:59.716Z,25.60
2018-08-22T09:19:28.521Z,25.80
2018-08-22T09:21:57.315Z,25.90
2018-08-22T09:24:26.112Z,25.80
2018-08-22T09:26:54.876Z,25.90
2018-08-22T09:29:24.751Z,26.00
2018-08-22T09:31:53.568Z,26.00
2018-08-22T09:34:22.371Z,26.10
2018-08-22T09:36:51.131Z,26.30
2018-08-22T09:39:19.952Z,26.60
2018-08-22T09:41:48.697Z,26.70
2018-08-22T09:44:17.485Z,26.80
2018-08-22T09:46:46.336Z,27.10
2018-08-22T09:49:15.079Z,27.50
2018-08-22T09:51:43.872Z,27.70
2018-08-22T09:54:12.673Z,27.80
2018-08-22T09:56:41.519Z,27.80
2018-08-22T09:59:10.404Z,28.00
2018-08-22T10:01:44.256Z,28.20
2018-08-22T10:04:13.044Z,28.50
2018-08-22T10:06:43.128Z,28.70
2018-08-22T10:09:19.401Z,28.80
2018-08-22T10:11:48.410Z,29.00
2018-08-22T10:14:17.204Z,29.20
2018-08-22T10:16:46.049Z,29.30
2018-08-22T10:19:14.799Z,29.30
2018-08-22T10:21:43.611Z,29.40
2018-08-22T10:24:12.630Z,29.50
2018-08-22T10:26:41.976Z,29.70
2018-08-22T10:29:10.752Z,29.80
2018-08-22T10:31:39.768Z,29.90
2018-08-22T10:34:08.573Z,29.90
2018-08-22T10:36:37.360Z,30.00
2018-08-22T10:39:07.998Z,30.20
2018-08-22T10:41:36.774Z,30.30
2018-08-22T10:44:05.852Z,30.30
2018-08-22T10:46:34.640Z,30.30
2018-08-22T10:49:03.603Z,30.30
2018-08-22T10:51:32.388Z,30.50
2018-08-22T10:54:01.239Z,30.50
2018-08-22T10:56:30.346Z,30.40
2018-08-22T10:58:59.116Z,30.50
2018-08-22T11:01:27.882Z,30.60
2018-08-22T11:03:56.696Z,30.60
2018-08-22T11:06:25.531Z,30.50
2018-08-22T11:08:54.312Z,30.50
2018-08-22T11:11:23.112Z,30.50
2018-08-22T11:13:51.914Z,30.50
2018-08-22T11:16:20.795Z,30.80
2018-08-22T11:18:49.605Z,30.80
2018-08-22T11:21:29.775Z,30.90
2018-08-22T11:24:09.932Z,31.00
2018-08-22T11:26:50.187Z,31.00
2018-08-22T11:29:30.292Z,31.00
2018-08-22T11:32:10.569Z,31.30
2018-08-22T11:34:43.651Z,31.40
2018-08-22T11:37:13.671Z,31.40
2018-08-22T11:39:44.015Z,31.40
2018-08-22T11:42:12.809Z,31.40
2018-08-22T11:44:41.632Z,31.40
2018-08-22T11:47:10.447Z,31.50
2018-08-22T11:49:39.240Z,31.70
2018-08-22T11:52:08.051Z,31.90
2018-08-22T11:54:36.853Z,31.80
2018-08-22T11:57:05.768Z,31.80
2018-08-22T11:59:34.563Z,31.90
2018-08-22T12:02:03.479Z,32.00
2018-08-22T12:04:32.172Z,32.00
2018-08-22T12:07:00.984Z,32.10
2018-08-22T12:09:29.753Z,32.10
2018-08-22T12:14:33.595Z,32.40
2018-08-22T12:17:02.385Z,32.50
2018-08-22T12:19:31.517Z,32.60
2018-08-22T12:22:00.384Z,32.80
2018-08-22T12:24:29.164Z,33.10
2018-08-22T12:26:57.987Z,33.30
2018-08-22T12:29:26.793Z,33.40
2018-08-22T12:31:55.587Z,33.70
2018-08-22T12:34:24.367Z,34.00
2018-08-22T12:36:53.216Z,34.20
2018-08-22T12:39:22.037Z,34.30
2018-08-22T12:41:50.848Z,34.00
2018-08-22T12:44:19.657Z,34.10
2018-08-22T12:46:48.455Z,33.80
2018-08-22T12:49:17.240Z,33.70
2018-08-22T12:51:46.021Z,33.90
2018-08-22T12:54:14.820Z,34.00
2018-08-22T12:56:43.643Z,33.90
2018-08-22T12:59:12.487Z,34.00
2018-08-22T13:01:41.284Z,34.20
2018-08-22T13:04:10.056Z,34.50
2018-08-22T13:06:38.860Z,34.70
2018-08-22T13:09:08.728Z,34.90
2018-08-22T13:11:37.540Z,34.90
2018-08-22T13:14:06.504Z,35.00
2018-08-22T13:16:35.295Z,35.00
2018-08-22T13:19:04.085Z,35.10
2018-08-22T13:21:32.898Z,35.20
2018-08-22T13:24:01.770Z,35.20
2018-08-22T13:26:30.492Z,35.10
2018-08-22T13:28:59.295Z,34.90
2018-08-22T13:31:28.083Z,34.80
2018-08-22T13:33:57.223Z,34.80
2018-08-22T13:36:26.025Z,34.60
2018-08-22T13:38:54.815Z,34.40
2018-08-22T13:41:23.605Z,34.50
2018-08-22T13:43:52.389Z,34.80
2018-08-22T13:46:21.195Z,35.00
2018-08-22T13:48:49.988Z,35.00
2018-08-22T13:51:18.799Z,34.70
2018-08-22T13:53:47.600Z,33.90
2018-08-22T13:56:16.455Z,33.50
2018-08-22T13:58:45.200Z,33.20
2018-08-22T14:01:14.503Z,32.90
2018-08-22T14:03:43.339Z,32.80
2018-08-22T14:06:12.267Z,32.50
2018-08-22T14:08:41.071Z,32.30
2018-08-22T14:11:09.861Z,32.10
2018-08-22T14:13:38.659Z,32.10
2018-08-22T14:16:07.575Z,31.80
2018-08-22T14:18:36.331Z,31.60
2018-08-22T14:21:05.139Z,31.30
2018-08-22T14:23:33.928Z,31.00
2018-08-22T14:26:02.767Z,30.40
2018-08-22T14:28:31.578Z,30.00
2018-08-22T14:31:00.375Z,29.40
2018-08-22T14:33:29.204Z,29.10
2018-08-22T14:35:58.544Z,29.00
2018-08-22T14:38:27.353Z,28.70
2018-08-22T14:40:56.160Z,28.60
2018-08-22T14:43:24.985Z,28.60
2018-08-22T14:45:53.783Z,28.20
2018-08-22T14:48:22.589Z,28.20
2018-08-22T14:50:51.375Z,28.20
2018-08-22T14:53:20.176Z,28.20
2018-08-22T14:55:49.520Z,28.20
2018-08-22T14:58:18.567Z,28.30
2018-08-22T15:00:47.428Z,28.30
2018-08-22T15:03:16.489Z,28.20
2018-08-22T15:05:45.019Z,28.20
2018-08-22T15:08:13.831Z,28.10
2018-08-22T15:10:45.939Z,28.10
2018-08-22T15:13:14.730Z,28.10
2018-08-22T15:15:43.899Z,27.80
2018-08-22T15:18:12.817Z,27.70
2018-08-22T15:20:45.200Z,27.60
2018-08-22T15:23:14.015Z,27.70
2018-08-22T15:25:42.784Z,27.60
2018-08-22T15:28:11.739Z,27.40
2018-08-22T15:30:41.538Z,27.60
2018-08-22T15:33:10.316Z,27.60
2018-08-22T15:35:39.172Z,27.80
2018-08-22T15:38:08.064Z,28.10
2018-08-22T15:40:36.918Z,28.60
2018-08-22T15:43:06.203Z,29.00
2018-08-22T15:45:35.019Z,29.30
2018-08-22T15:48:04.102Z,29.50
2018-08-22T15:50:32.876Z,29.50
2018-08-22T15:53:01.686Z,29.30
2018-08-22T15:55:30.493Z,29.20
2018-08-22T15:58:03.999Z,29.40
2018-08-22T16:00:49.616Z,29.50
2018-08-22T16:03:18.503Z,29.70
2018-08-22T16:05:48.135Z,30.10
2018-08-22T16:08:17.679Z,30.00
2018-08-22T16:10:46.543Z,29.90
2018-08-22T16:13:20.747Z,29.90
2018-08-22T16:15:51.256Z,29.80
2018-08-22T16:18:20.403Z,29.90
2018-08-22T16:20:55.211Z,30.20
2018-08-22T16:23:25.596Z,30.10
2018-08-22T16:25:55.125Z,30.10
2018-08-22T16:28:24.524Z,30.00
2018-08-22T16:30:57.578Z,30.00
2018-08-22T16:33:23.704Z,29.90
2018-08-22T16:35:52.633Z,29.90
2018-08-22T16:38:21.431Z,29.90
2018-08-22T16:40:51.751Z,29.70
2018-08-22T16:43:39.016Z,29.70
2018-08-22T16:46:11.437Z,29.60
2018-08-22T16:48:40.935Z,29.50
2018-08-22T16:51:09.853Z,29.40
2018-08-22T16:53:38.675Z,29.30
2018-08-22T16:56:07.494Z,29.30
2018-08-22T16:58:36.296Z,29.30
2018-08-22T17:01:05.178Z,29.20
2018-08-22T17:03:33.983Z,29.10
2018-08-22T17:06:12.321Z,29.10
2018-08-22T17:08:41.128Z,29.00
2018-08-22T17:11:11.095Z,28.90
2018-08-22T17:13:45.215Z,28.80
2018-08-22T17:16:14.047Z,28.60
2018-08-22T17:18:42.892Z,28.40
2018-08-22T17:21:11.927Z,28.30
2018-08-22T17:23:41.079Z,28.00
2018-08-22T17:26:15.096Z,27.80
2018-08-22T17:28:46.949Z,27.70
2018-08-22T17:31:16.667Z,27.70
2018-08-22T17:33:49.311Z,27.60
2018-08-22T17:36:18.154Z,27.40
2018-08-22T17:38:48.288Z,27.30
2018-08-22T17:41:17.879Z,27.30
2018-08-22T17:43:58.078Z,27.20
2018-08-22T17:46:28.565Z,27.10
2018-08-22T17:48:57.756Z,27.10
2018-08-22T17:51:26.647Z,27.00
2018-08-22T17:53:55.426Z,26.80
2018-08-22T17:56:25.305Z,26.80
2018-08-22T17:58:55.041Z,26.70
2018-08-22T18:01:24.392Z,26.50
2018-08-22T18:03:55.329Z,26.50
2018-08-22T18:06:24.320Z,26.20
2018-08-22T18:08:53.135Z,26.10
2018-08-22T18:11:21.971Z,25.90
2018-08-22T18:13:50.805Z,25.70
2018-08-22T18:16:19.551Z,25.60
2018-08-22T18:18:49.900Z,25.60
2018-08-22T18:21:18.779Z,25.50
2018-08-22T18:23:53.811Z,25.50
2018-08-22T18:26:22.608Z,25.30
2018-08-22T18:28:51.403Z,25.20
2018-08-22T18:31:20.216Z,25.10
2018-08-22T18:34:00.784Z,25.00
2018-08-22T18:36:30.596Z,25.00
2018-08-22T18:39:05.660Z,24.90
2018-08-22T18:41:34.612Z,24.80
2018-08-22T18:44:03.607Z,24.70
2018-08-22T18:46:32.437Z,24.60
2018-08-22T18:49:03.135Z,24.60
2018-08-22T18:51:32.502Z,24.50
2018-08-22T18:54:03.091Z,24.40
2018-08-22T18:56:31.995Z,24.40
2018-08-22T18:59:12.212Z,24.30
2018-08-22T19:01:41.077Z,24.20
2018-08-22T19:04:09.917Z,24.10
2018-08-22T19:06:38.770Z,24.00
2018-08-22T19:09:07.828Z,23.90
2018-08-22T19:11:36.603Z,23.90
2018-08-22T19:14:05.470Z,23.90
2018-08-22T19:16:34.259Z,23.90
2018-08-22T19:19:03.631Z,23.80
2018-08-22T19:21:32.587Z,23.70
2018-08-22T19:24:04.481Z,23.60
2018-08-22T19:26:33.407Z,23.50
2018-08-22T19:29:04.161Z,23.50
2018-08-22T19:31:33.064Z,23.40
2018-08-22T19:34:01.916Z,23.40
2018-08-22T19:36:30.696Z,23.40
2018-08-22T19:38:59.549Z,23.40
2018-08-22T19:41:32.574Z,23.50
2018-08-22T19:44:01.391Z,23.40
2018-08-22T19:46:30.300Z,23.40
2018-08-22T19:49:00.636Z,23.40
2018-08-22T19:51:29.653Z,23.40
2018-08-22T19:54:02.403Z,23.20
2018-08-22T19:56:31.473Z,23.20
2018-08-22T19:59:00.889Z,23.20
2018-08-22T20:01:31.812Z,23.10
2018-08-22T20:04:00.675Z,23.10
2018-08-22T20:06:29.537Z,23.00
2018-08-22T20:09:00.167Z,23.00
2018-08-22T20:11:31.622Z,22.90
2018-08-22T20:14:02.408Z,22.90
2018-08-22T20:16:31.246Z,22.80
2018-08-22T20:19:01.344Z,22.80
2018-08-22T20:21:34.391Z,22.70
2018-08-22T20:24:04.509Z,22.80
2018-08-22T20:26:33.808Z,22.80
2018-08-22T20:29:03.636Z,22.70
2018-08-22T20:31:33.616Z,22.60
2018-08-22T20:34:07.022Z,22.60
2018-08-22T20:36:35.885Z,22.50
2018-08-22T20:39:08.520Z,22.50
2018-08-22T20:41:38.021Z,22.40
2018-08-22T20:44:08.080Z,22.40
2018-08-22T20:46:36.858Z,22.40
2018-08-22T20:49:05.714Z,22.40
2018-08-22T20:51:34.608Z,22.30
2018-08-22T20:54:07.084Z,22.30
2018-08-22T20:56:37.083Z,22.20
2018-08-22T20:59:05.895Z,22.20
2018-08-22T21:01:34.747Z,22.20
2018-08-22T21:04:03.602Z,22.20
2018-08-22T21:06:33.159Z,22.10
2018-08-22T21:09:01.984Z,22.10
2018-08-22T21:11:30.839Z,22.10
2018-08-22T21:13:59.644Z,22.00
2018-08-22T21:16:28.407Z,22.00
2018-08-22T21:18:57.256Z,22.00
2018-08-22T21:21:26.095Z,21.90
2018-08-22T21:23:54.915Z,21.90
2018-08-22T21:26:36.671Z,22.00
2018-08-22T21:29:05.693Z,22.00
2018-08-22T21:31:35.076Z,22.00
2018-08-22T21:34:12.975Z,21.90
2018-08-22T21:36:44.346Z,21.80
2018-08-22T21:39:18.585Z,21.80
2018-08-22T21:41:47.922Z,21.80
2018-08-22T21:44:18.972Z,21.80
2018-08-22T21:46:55.166Z,21.80
2018-08-22T21:49:24.532Z,21.80
2018-08-22T21:51:55.432Z,21.80
2018-08-22T21:54:25.199Z,21.80
2018-08-22T21:56:54.059Z,21.80
2018-08-22T21:59:22.912Z,21.80
2018-08-22T22:01:57.164Z,21.90
2018-08-22T22:04:31.131Z,22.00
2018-08-22T22:06:59.944Z,22.00
2018-08-22T22:09:28.748Z,22.00
2018-08-22T22:11:58.075Z,22.00
2018-08-22T22:14:28.011Z,22.00
2018-08-22T22:16:58.520Z,22.00
2018-08-22T22:19:29.343Z,22.00
2018-08-22T22:21:58.192Z,21.80
2018-08-22T22:24:27.032Z,21.90
2018-08-22T22:26:55.902Z,21.80
2018-08-22T22:29:27.000Z,21.80
2018-08-22T22:31:55.886Z,21.80
2018-08-22T22:34:25.083Z,21.70
2018-08-22T22:36:53.996Z,21.80
2018-08-22T22:39:36.167Z,21.70
2018-08-22T22:42:14.248Z,21.70
2018-08-22T22:44:47.461Z,21.60
2018-08-22T22:47:21.660Z,21.50
2018-08-22T22:49:51.185Z,21.50
2018-08-22T22:52:30.488Z,21.50
2018-08-22T22:55:00.511Z,21.50
2018-08-22T22:57:31.015Z,21.40
2018-08-22T23:00:00.560Z,21.30
2018-08-22T23:02:29.835Z,21.30
2018-08-22T23:04:59.387Z,21.30
2018-08-22T23:07:29.894Z,21.20
2018-08-22T23:10:02.873Z,21.20
2018-08-22T23:12:47.051Z,21.20
2018-08-22T23:15:22.160Z,21.20
2018-08-22T23:17:53.916Z,21.10
2018-08-22T23:20:27.133Z,21.10
2018-08-22T23:22:56.195Z,21.10
2018-08-22T23:25:25.331Z,21.10
2018-08-22T23:27:54.107Z,21.00
2018-08-22T23:30:27.395Z,21.00
2018-08-22T23:32:56.252Z,21.00
2018-08-22T23:35:26.732Z,20.90
2018-08-22T23:38:03.772Z,20.90
2018-08-22T23:40:34.539Z,20.90
2018-08-22T23:43:03.372Z,20.90
2018-08-22T23:45:35.640Z,20.90
2018-08-22T23:48:05.446Z,20.90
2018-08-22T23:50:44.098Z,21.00
2018-08-22T23:53:12.888Z,21.00
2018-08-22T23:55:41.689Z,21.00
2018-08-22T23:58:10.495Z,20.90
